sensor_id;sensor_type;location;lat;lon;timestamp;P1;durP1;ratioP1;P2;durP2;ratioP2
3491;SDS011;1760;52.480;13.422;2023-07-16T00:02:04;3.70;;;3.03;;
3491;SDS011;1760;52.480;13.422;2023-07-16T00:04:32;3.60;;;2.20;;
3491;SDS011;1760;52.480;13.422;2023-07-16T00:07:00;3.47;;;2.67;;
3491;SDS011;1760;52.480;13.422;2023-07-16T00:09:33;3.60;;;2.97;;
3491;SDS011;1760;52.480;13.422;2023-07-16T00:12:00;4.30;;;2.70;;
3491;SDS011;1760;52.480;13.422;2023-07-16T00:14:27;3.43;;;3.07;;
3491;SDS011;1760;52.480;13.422;2023-07-16T00:16:54;2.87;;;2.57;;
3491;SDS011;1760;52.480;13.422;2023-07-16T00:19:21;7.27;;;2.77;;
3491;SDS011;1760;52.480;13.422;2023-07-16T00:21:48;4.33;;;2.90;;
3491;SDS011;1760;52.480;13.422;2023-07-16T00:24:16;5.27;;;2.83;;
3491;SDS011;1760;52.480;13.422;2023-07-16T00:26:43;5.60;;;3.03;;
3491;SDS011;1760;52.480;13.422;2023-07-16T00:29:10;4.10;;;3.63;;
3491;SDS011;1760;52.480;13.422;2023-07-16T00:31:37;5.67;;;3.00;;
3491;SDS011;1760;52.480;13.422;2023-07-16T00:34:04;4.60;;;3.17;;
3491;SDS011;1760;52.480;13.422;2023-07-16T00:36:32;4.23;;;3.00;;
3491;SDS011;1760;52.480;13.422;2023-07-16T00:38:58;6.63;;;3.27;;
3491;SDS011;1760;52.480;13.422;2023-07-16T00:41:41;4.87;;;2.83;;
3491;SDS011;1760;52.480;13.422;2023-07-16T00:44:08;3.80;;;2.93;;
3491;SDS011;1760;52.480;13.422;2023-07-16T00:46:35;5.97;;;3.47;;
3491;SDS011;1760;52.480;13.422;2023-07-16T00:49:02;4.13;;;3.53;;
3491;SDS011;1760;52.480;13.422;2023-07-16T00:51:29;3.40;;;3.10;;
3491;SDS011;1760;52.480;13.422;2023-07-16T00:53:56;5.23;;;3.33;;
3491;SDS011;1760;52.480;13.422;2023-07-16T00:56:23;3.60;;;2.87;;
3491;SDS011;1760;52.480;13.422;2023-07-16T00:58:53;5.90;;;4.30;;
3491;SDS011;1760;52.480;13.422;2023-07-16T01:01:22;10.87;;;4.63;;
3491;SDS011;1760;52.480;13.422;2023-07-16T01:03:49;5.73;;;3.97;;
3491;SDS011;1760;52.480;13.422;2023-07-16T01:06:17;6.00;;;4.23;;
3491;SDS011;1760;52.480;13.422;2023-07-16T01:08:49;4.20;;;3.40;;
3491;SDS011;1760;52.480;13.422;2023-07-16T01:11:21;5.23;;;3.47;;
3491;SDS011;1760;52.480;13.422;2023-07-16T01:13:48;2.97;;;2.77;;
3491;SDS011;1760;52.480;13.422;2023-07-16T01:16:20;4.63;;;3.50;;
3491;SDS011;1760;52.480;13.422;2023-07-16T01:18:48;8.70;;;5.33;;
3491;SDS011;1760;52.480;13.422;2023-07-16T01:21:15;6.70;;;3.43;;
3491;SDS011;1760;52.480;13.422;2023-07-16T01:23:54;10.17;;;4.03;;
3491;SDS011;1760;52.480;13.422;2023-07-16T01:26:48;6.03;;;4.13;;
3491;SDS011;1760;52.480;13.422;2023-07-16T01:29:30;5.33;;;3.90;;
3491;SDS011;1760;52.480;13.422;2023-07-16T01:32:00;4.90;;;4.40;;
3491;SDS011;1760;52.480;13.422;2023-07-16T01:34:29;4.77;;;4.30;;
3491;SDS011;1760;52.480;13.422;2023-07-16T01:36:59;6.30;;;5.27;;
3491;SDS011;1760;52.480;13.422;2023-07-16T01:39:26;5.37;;;4.47;;
3491;SDS011;1760;52.480;13.422;2023-07-16T01:41:54;8.50;;;5.67;;
3491;SDS011;1760;52.480;13.422;2023-07-16T01:44:21;10.23;;;5.93;;
3491;SDS011;1760;52.480;13.422;2023-07-16T01:46:59;6.93;;;5.20;;
3491;SDS011;1760;52.480;13.422;2023-07-16T01:49:38;5.67;;;4.20;;
3491;SDS011;1760;52.480;13.422;2023-07-16T01:52:07;6.33;;;5.70;;
3491;SDS011;1760;52.480;13.422;2023-07-16T01:54:35;6.70;;;3.40;;
3491;SDS011;1760;52.480;13.422;2023-07-16T01:57:02;5.10;;;4.00;;
3491;SDS011;1760;52.480;13.422;2023-07-16T01:59:29;13.83;;;4.27;;
3491;SDS011;1760;52.480;13.422;2023-07-16T02:01:58;4.53;;;4.13;;
3491;SDS011;1760;52.480;13.422;2023-07-16T02:04:25;3.73;;;3.10;;
3491;SDS011;1760;52.480;13.422;2023-07-16T02:06:52;6.40;;;2.70;;
3491;SDS011;1760;52.480;13.422;2023-07-16T02:09:19;5.10;;;3.93;;
3491;SDS011;1760;52.480;13.422;2023-07-16T02:11:46;4.70;;;3.70;;
3491;SDS011;1760;52.480;13.422;2023-07-16T02:14:13;3.30;;;3.00;;
3491;SDS011;1760;52.480;13.422;2023-07-16T02:16:41;3.73;;;3.10;;
3491;SDS011;1760;52.480;13.422;2023-07-16T02:19:09;5.60;;;3.20;;
3491;SDS011;1760;52.480;13.422;2023-07-16T02:21:36;3.30;;;2.73;;
3491;SDS011;1760;52.480;13.422;2023-07-16T02:24:03;4.67;;;3.00;;
3491;SDS011;1760;52.480;13.422;2023-07-16T02:26:31;3.50;;;2.67;;
3491;SDS011;1760;52.480;13.422;2023-07-16T02:28:58;5.70;;;3.33;;
3491;SDS011;1760;52.480;13.422;2023-07-16T02:31:25;3.60;;;2.70;;
3491;SDS011;1760;52.480;13.422;2023-07-16T02:33:51;2.93;;;2.37;;
3491;SDS011;1760;52.480;13.422;2023-07-16T02:36:20;3.63;;;3.33;;
3491;SDS011;1760;52.480;13.422;2023-07-16T02:38:47;3.47;;;3.17;;
3491;SDS011;1760;52.480;13.422;2023-07-16T02:41:14;3.53;;;2.40;;
3491;SDS011;1760;52.480;13.422;2023-07-16T02:43:40;5.33;;;3.27;;
3491;SDS011;1760;52.480;13.422;2023-07-16T02:46:08;2.73;;;2.37;;
3491;SDS011;1760;52.480;13.422;2023-07-16T02:48:34;3.13;;;2.83;;
3491;SDS011;1760;52.480;13.422;2023-07-16T02:51:01;3.13;;;2.57;;
3491;SDS011;1760;52.480;13.422;2023-07-16T02:53:29;4.00;;;2.83;;
3491;SDS011;1760;52.480;13.422;2023-07-16T02:55:56;3.20;;;2.90;;
3491;SDS011;1760;52.480;13.422;2023-07-16T02:58:24;6.50;;;3.63;;
3491;SDS011;1760;52.480;13.422;2023-07-16T03:00:51;6.80;;;2.83;;
3491;SDS011;1760;52.480;13.422;2023-07-16T03:03:18;4.33;;;3.10;;
3491;SDS011;1760;52.480;13.422;2023-07-16T03:05:45;3.20;;;2.90;;
3491;SDS011;1760;52.480;13.422;2023-07-16T03:08:12;4.13;;;3.20;;
3491;SDS011;1760;52.480;13.422;2023-07-16T03:10:40;5.13;;;3.23;;
3491;SDS011;1760;52.480;13.422;2023-07-16T03:13:07;3.87;;;3.17;;
3491;SDS011;1760;52.480;13.422;2023-07-16T03:15:34;3.37;;;3.07;;
3491;SDS011;1760;52.480;13.422;2023-07-16T03:18:01;4.17;;;3.00;;
3491;SDS011;1760;52.480;13.422;2023-07-16T03:20:28;6.80;;;3.20;;
3491;SDS011;1760;52.480;13.422;2023-07-16T03:22:56;4.00;;;2.77;;
3491;SDS011;1760;52.480;13.422;2023-07-16T03:25:23;4.83;;;2.90;;
3491;SDS011;1760;52.480;13.422;2023-07-16T03:27:51;3.70;;;2.57;;
3491;SDS011;1760;52.480;13.422;2023-07-16T03:30:18;5.73;;;2.27;;
3491;SDS011;1760;52.480;13.422;2023-07-16T03:32:45;3.80;;;2.60;;
3491;SDS011;1760;52.480;13.422;2023-07-16T03:35:12;2.90;;;2.60;;
3491;SDS011;1760;52.480;13.422;2023-07-16T03:37:39;2.87;;;2.40;;
3491;SDS011;1760;52.480;13.422;2023-07-16T03:40:15;2.60;;;2.20;;
3491;SDS011;1760;52.480;13.422;2023-07-16T03:42:43;3.10;;;2.47;;
3491;SDS011;1760;52.480;13.422;2023-07-16T03:45:11;2.50;;;2.30;;
3491;SDS011;1760;52.480;13.422;2023-07-16T03:47:39;2.47;;;2.03;;
3491;SDS011;1760;52.480;13.422;2023-07-16T03:50:07;3.90;;;2.43;;
3491;SDS011;1760;52.480;13.422;2023-07-16T03:52:34;3.23;;;2.37;;
3491;SDS011;1760;52.480;13.422;2023-07-16T03:55:01;5.00;;;2.83;;
3491;SDS011;1760;52.480;13.422;2023-07-16T03:57:28;5.63;;;2.80;;
3491;SDS011;1760;52.480;13.422;2023-07-16T03:59:56;3.97;;;2.87;;
3491;SDS011;1760;52.480;13.422;2023-07-16T04:02:24;4.80;;;2.57;;
3491;SDS011;1760;52.480;13.422;2023-07-16T04:04:51;3.50;;;2.90;;
3491;SDS011;1760;52.480;13.422;2023-07-16T04:07:19;3.70;;;2.80;;
3491;SDS011;1760;52.480;13.422;2023-07-16T04:09:45;2.40;;;2.20;;
3491;SDS011;1760;52.480;13.422;2023-07-16T04:12:13;3.10;;;2.77;;
3491;SDS011;1760;52.480;13.422;2023-07-16T04:14:39;4.03;;;2.97;;
3491;SDS011;1760;52.480;13.422;2023-07-16T04:17:07;2.17;;;1.97;;
3491;SDS011;1760;52.480;13.422;2023-07-16T04:19:35;3.53;;;2.87;;
3491;SDS011;1760;52.480;13.422;2023-07-16T04:22:02;4.83;;;2.90;;
3491;SDS011;1760;52.480;13.422;2023-07-16T04:24:29;3.57;;;3.00;;
3491;SDS011;1760;52.480;13.422;2023-07-16T04:26:57;4.20;;;2.80;;
3491;SDS011;1760;52.480;13.422;2023-07-16T04:29:24;2.93;;;2.63;;
3491;SDS011;1760;52.480;13.422;2023-07-16T04:31:51;3.83;;;2.50;;
3491;SDS011;1760;52.480;13.422;2023-07-16T04:34:18;2.83;;;2.63;;
3491;SDS011;1760;52.480;13.422;2023-07-16T04:36:46;4.83;;;2.97;;
3491;SDS011;1760;52.480;13.422;2023-07-16T04:39:13;6.10;;;3.07;;
3491;SDS011;1760;52.480;13.422;2023-07-16T04:41:40;3.10;;;2.80;;
3491;SDS011;1760;52.480;13.422;2023-07-16T04:44:07;4.37;;;2.93;;
3491;SDS011;1760;52.480;13.422;2023-07-16T04:46:34;4.30;;;3.30;;
3491;SDS011;1760;52.480;13.422;2023-07-16T04:49:01;5.23;;;3.40;;
3491;SDS011;1760;52.480;13.422;2023-07-16T04:51:29;5.33;;;3.57;;
3491;SDS011;1760;52.480;13.422;2023-07-16T04:53:57;4.10;;;2.80;;
3491;SDS011;1760;52.480;13.422;2023-07-16T04:56:24;4.33;;;3.13;;
3491;SDS011;1760;52.480;13.422;2023-07-16T04:58:50;4.20;;;2.67;;
3491;SDS011;1760;52.480;13.422;2023-07-16T05:01:17;3.77;;;3.30;;
3491;SDS011;1760;52.480;13.422;2023-07-16T05:03:45;5.60;;;3.10;;
3491;SDS011;1760;52.480;13.422;2023-07-16T05:06:12;4.00;;;3.20;;
3491;SDS011;1760;52.480;13.422;2023-07-16T05:08:39;3.80;;;3.40;;
3491;SDS011;1760;52.480;13.422;2023-07-16T05:11:07;3.70;;;3.20;;
3491;SDS011;1760;52.480;13.422;2023-07-16T05:13:34;3.17;;;2.87;;
3491;SDS011;1760;52.480;13.422;2023-07-16T05:16:01;4.63;;;2.90;;
3491;SDS011;1760;52.480;13.422;2023-07-16T05:18:28;3.27;;;2.97;;
3491;SDS011;1760;52.480;13.422;2023-07-16T05:20:55;4.10;;;3.60;;
3491;SDS011;1760;52.480;13.422;2023-07-16T05:23:21;5.03;;;3.10;;
3491;SDS011;1760;52.480;13.422;2023-07-16T05:25:49;3.50;;;2.73;;
3491;SDS011;1760;52.480;13.422;2023-07-16T05:28:18;3.90;;;2.97;;
3491;SDS011;1760;52.480;13.422;2023-07-16T05:30:45;5.40;;;3.60;;
3491;SDS011;1760;52.480;13.422;2023-07-16T05:33:12;3.67;;;2.90;;
3491;SDS011;1760;52.480;13.422;2023-07-16T05:35:39;6.83;;;3.80;;
3491;SDS011;1760;52.480;13.422;2023-07-16T05:38:06;3.30;;;2.93;;
3491;SDS011;1760;52.480;13.422;2023-07-16T05:40:34;5.13;;;3.90;;
3491;SDS011;1760;52.480;13.422;2023-07-16T05:43:01;3.80;;;2.87;;
3491;SDS011;1760;52.480;13.422;2023-07-16T05:45:29;3.53;;;3.07;;
3491;SDS011;1760;52.480;13.422;2023-07-16T05:47:56;3.43;;;2.63;;
3491;SDS011;1760;52.480;13.422;2023-07-16T05:50:23;4.67;;;3.50;;
3491;SDS011;1760;52.480;13.422;2023-07-16T05:52:53;2.70;;;2.50;;
3491;SDS011;1760;52.480;13.422;2023-07-16T05:55:20;3.00;;;2.80;;
3491;SDS011;1760;52.480;13.422;2023-07-16T05:57:47;3.60;;;2.83;;
3491;SDS011;1760;52.480;13.422;2023-07-16T06:00:14;5.30;;;3.23;;
3491;SDS011;1760;52.480;13.422;2023-07-16T06:02:43;3.40;;;2.60;;
3491;SDS011;1760;52.480;13.422;2023-07-16T06:05:10;5.13;;;3.93;;
3491;SDS011;1760;52.480;13.422;2023-07-16T06:07:37;3.73;;;3.10;;
3491;SDS011;1760;52.480;13.422;2023-07-16T06:10:04;3.93;;;3.57;;
3491;SDS011;1760;52.480;13.422;2023-07-16T06:12:31;3.47;;;2.80;;
3491;SDS011;1760;52.480;13.422;2023-07-16T06:14:58;4.30;;;3.87;;
3491;SDS011;1760;52.480;13.422;2023-07-16T06:17:25;3.83;;;3.10;;
3491;SDS011;1760;52.480;13.422;2023-07-16T06:19:53;4.20;;;3.37;;
3491;SDS011;1760;52.480;13.422;2023-07-16T06:22:20;4.67;;;3.33;;
3491;SDS011;1760;52.480;13.422;2023-07-16T06:24:47;4.10;;;3.70;;
3491;SDS011;1760;52.480;13.422;2023-07-16T06:27:14;5.03;;;3.50;;
3491;SDS011;1760;52.480;13.422;2023-07-16T06:29:41;3.73;;;2.87;;
3491;SDS011;1760;52.480;13.422;2023-07-16T06:32:09;3.73;;;3.23;;
3491;SDS011;1760;52.480;13.422;2023-07-16T06:34:36;4.40;;;3.87;;
3491;SDS011;1760;52.480;13.422;2023-07-16T06:37:05;5.10;;;3.20;;
3491;SDS011;1760;52.480;13.422;2023-07-16T06:39:35;3.70;;;3.40;;
3491;SDS011;1760;52.480;13.422;2023-07-16T06:42:02;3.67;;;3.20;;
3491;SDS011;1760;52.480;13.422;2023-07-16T06:44:30;5.00;;;3.63;;
3491;SDS011;1760;52.480;13.422;2023-07-16T06:46:58;4.20;;;3.27;;
3491;SDS011;1760;52.480;13.422;2023-07-16T06:49:25;4.10;;;3.07;;
3491;SDS011;1760;52.480;13.422;2023-07-16T06:51:52;2.80;;;2.53;;
3491;SDS011;1760;52.480;13.422;2023-07-16T06:54:20;6.13;;;3.00;;
3491;SDS011;1760;52.480;13.422;2023-07-16T06:56:47;8.10;;;2.93;;
3491;SDS011;1760;52.480;13.422;2023-07-16T06:59:14;3.50;;;2.57;;
3491;SDS011;1760;52.480;13.422;2023-07-16T07:01:41;3.10;;;2.87;;
3491;SDS011;1760;52.480;13.422;2023-07-16T07:04:08;3.87;;;2.57;;
3491;SDS011;1760;52.480;13.422;2023-07-16T07:06:36;3.60;;;2.80;;
3491;SDS011;1760;52.480;13.422;2023-07-16T07:09:03;6.07;;;2.87;;
3491;SDS011;1760;52.480;13.422;2023-07-16T07:11:31;3.27;;;2.97;;
3491;SDS011;1760;52.480;13.422;2023-07-16T07:13:58;2.53;;;2.33;;
3491;SDS011;1760;52.480;13.422;2023-07-16T07:16:27;3.37;;;2.70;;
3491;SDS011;1760;52.480;13.422;2023-07-16T07:18:54;2.77;;;2.47;;
3491;SDS011;1760;52.480;13.422;2023-07-16T07:21:21;2.90;;;2.03;;
3491;SDS011;1760;52.480;13.422;2023-07-16T07:23:48;2.90;;;2.60;;
3491;SDS011;1760;52.480;13.422;2023-07-16T07:26:15;3.70;;;2.53;;
3491;SDS011;1760;52.480;13.422;2023-07-16T07:28:43;3.40;;;3.10;;
3491;SDS011;1760;52.480;13.422;2023-07-16T07:31:10;3.03;;;2.73;;
3491;SDS011;1760;52.480;13.422;2023-07-16T07:33:37;5.70;;;2.87;;
3491;SDS011;1760;52.480;13.422;2023-07-16T07:36:04;2.93;;;2.60;;
3491;SDS011;1760;52.480;13.422;2023-07-16T07:38:33;3.10;;;2.80;;
3491;SDS011;1760;52.480;13.422;2023-07-16T07:41:00;3.20;;;2.90;;
3491;SDS011;1760;52.480;13.422;2023-07-16T07:43:27;3.80;;;3.50;;
3491;SDS011;1760;52.480;13.422;2023-07-16T07:45:55;3.17;;;2.87;;
3491;SDS011;1760;52.480;13.422;2023-07-16T07:48:22;3.43;;;3.13;;
3491;SDS011;1760;52.480;13.422;2023-07-16T07:50:49;3.63;;;2.97;;
3491;SDS011;1760;52.480;13.422;2023-07-16T07:53:20;3.53;;;3.23;;
3491;SDS011;1760;52.480;13.422;2023-07-16T07:55:47;3.50;;;3.13;;
3491;SDS011;1760;52.480;13.422;2023-07-16T07:58:14;2.80;;;2.60;;
3491;SDS011;1760;52.480;13.422;2023-07-16T08:00:41;3.90;;;3.07;;
3491;SDS011;1760;52.480;13.422;2023-07-16T08:03:09;3.93;;;3.00;;
3491;SDS011;1760;52.480;13.422;2023-07-16T08:05:36;3.80;;;3.50;;
3491;SDS011;1760;52.480;13.422;2023-07-16T08:08:02;4.53;;;2.40;;
3491;SDS011;1760;52.480;13.422;2023-07-16T08:10:30;5.57;;;3.00;;
3491;SDS011;1760;52.480;13.422;2023-07-16T08:12:57;3.13;;;2.83;;
3491;SDS011;1760;52.480;13.422;2023-07-16T08:15:23;3.10;;;2.80;;
3491;SDS011;1760;52.480;13.422;2023-07-16T08:17:50;3.93;;;2.80;;
3491;SDS011;1760;52.480;13.422;2023-07-16T08:20:20;4.20;;;2.73;;
3491;SDS011;1760;52.480;13.422;2023-07-16T08:22:47;2.53;;;2.33;;
3491;SDS011;1760;52.480;13.422;2023-07-16T08:25:15;2.00;;;1.83;;
3491;SDS011;1760;52.480;13.422;2023-07-16T08:27:42;2.40;;;2.20;;
3491;SDS011;1760;52.480;13.422;2023-07-16T08:30:10;4.23;;;2.30;;
3491;SDS011;1760;52.480;13.422;2023-07-16T08:32:37;2.93;;;2.50;;
3491;SDS011;1760;52.480;13.422;2023-07-16T08:35:04;4.53;;;2.33;;
3491;SDS011;1760;52.480;13.422;2023-07-16T08:37:32;3.23;;;2.37;;
3491;SDS011;1760;52.480;13.422;2023-07-16T08:39:59;4.23;;;2.10;;
3491;SDS011;1760;52.480;13.422;2023-07-16T08:42:26;2.73;;;2.43;;
3491;SDS011;1760;52.480;13.422;2023-07-16T08:44:53;2.10;;;1.90;;
3491;SDS011;1760;52.480;13.422;2023-07-16T08:47:21;3.10;;;2.20;;
3491;SDS011;1760;52.480;13.422;2023-07-16T08:49:54;2.50;;;2.00;;
3491;SDS011;1760;52.480;13.422;2023-07-16T08:52:21;2.53;;;2.07;;
3491;SDS011;1760;52.480;13.422;2023-07-16T08:54:50;2.10;;;1.80;;
3491;SDS011;1760;52.480;13.422;2023-07-16T08:57:19;3.53;;;1.80;;
3491;SDS011;1760;52.480;13.422;2023-07-16T08:59:47;2.37;;;2.00;;
3491;SDS011;1760;52.480;13.422;2023-07-16T09:02:15;2.80;;;2.20;;
3491;SDS011;1760;52.480;13.422;2023-07-16T09:04:43;4.00;;;2.90;;
3491;SDS011;1760;52.480;13.422;2023-07-16T09:07:12;5.20;;;2.13;;
3491;SDS011;1760;52.480;13.422;2023-07-16T09:09:38;3.67;;;2.40;;
3491;SDS011;1760;52.480;13.422;2023-07-16T09:12:10;3.30;;;2.63;;
3491;SDS011;1760;52.480;13.422;2023-07-16T09:14:37;6.50;;;2.20;;
3491;SDS011;1760;52.480;13.422;2023-07-16T09:17:06;5.80;;;2.53;;
3491;SDS011;1760;52.480;13.422;2023-07-16T09:19:33;4.40;;;2.47;;
3491;SDS011;1760;52.480;13.422;2023-07-16T09:22:00;3.63;;;2.37;;
3491;SDS011;1760;52.480;13.422;2023-07-16T09:24:30;3.50;;;2.63;;
3491;SDS011;1760;52.480;13.422;2023-07-16T09:26:57;2.80;;;2.57;;
3491;SDS011;1760;52.480;13.422;2023-07-16T09:29:28;3.10;;;2.33;;
3491;SDS011;1760;52.480;13.422;2023-07-16T09:31:55;7.43;;;3.50;;
3491;SDS011;1760;52.480;13.422;2023-07-16T09:34:22;3.30;;;2.50;;
3491;SDS011;1760;52.480;13.422;2023-07-16T09:36:49;2.90;;;2.30;;
3491;SDS011;1760;52.480;13.422;2023-07-16T09:39:16;2.13;;;2.00;;
3491;SDS011;1760;52.480;13.422;2023-07-16T09:41:45;3.57;;;3.00;;
3491;SDS011;1760;52.480;13.422;2023-07-16T09:44:13;2.40;;;2.20;;
3491;SDS011;1760;52.480;13.422;2023-07-16T09:46:42;2.83;;;2.43;;
3491;SDS011;1760;52.480;13.422;2023-07-16T09:49:10;3.10;;;2.50;;
3491;SDS011;1760;52.480;13.422;2023-07-16T09:51:37;10.07;;;2.70;;
3491;SDS011;1760;52.480;13.422;2023-07-16T09:54:05;3.30;;;2.30;;
3491;SDS011;1760;52.480;13.422;2023-07-16T09:56:33;4.43;;;2.07;;
3491;SDS011;1760;52.480;13.422;2023-07-16T09:59:04;2.40;;;2.17;;
3491;SDS011;1760;52.480;13.422;2023-07-16T10:01:35;2.70;;;1.83;;
3491;SDS011;1760;52.480;13.422;2023-07-16T10:04:13;3.07;;;2.10;;
3491;SDS011;1760;52.480;13.422;2023-07-16T10:06:53;4.93;;;2.27;;
3491;SDS011;1760;52.480;13.422;2023-07-16T10:09:33;4.40;;;2.33;;
3491;SDS011;1760;52.480;13.422;2023-07-16T10:12:11;2.10;;;1.90;;
3491;SDS011;1760;52.480;13.422;2023-07-16T10:14:40;4.00;;;3.40;;
3491;SDS011;1760;52.480;13.422;2023-07-16T10:17:11;2.20;;;2.00;;
3491;SDS011;1760;52.480;13.422;2023-07-16T10:19:48;5.40;;;2.50;;
3491;SDS011;1760;52.480;13.422;2023-07-16T10:22:30;2.50;;;2.30;;
3491;SDS011;1760;52.480;13.422;2023-07-16T10:24:58;3.10;;;2.23;;
3491;SDS011;1760;52.480;13.422;2023-07-16T10:27:26;2.70;;;2.27;;
3491;SDS011;1760;52.480;13.422;2023-07-16T10:29:54;3.80;;;2.57;;
3491;SDS011;1760;52.480;13.422;2023-07-16T10:32:21;2.83;;;2.63;;
3491;SDS011;1760;52.480;13.422;2023-07-16T10:34:53;5.23;;;2.60;;
3491;SDS011;1760;52.480;13.422;2023-07-16T10:37:20;3.27;;;2.20;;
3491;SDS011;1760;52.480;13.422;2023-07-16T10:39:47;4.10;;;2.60;;
3491;SDS011;1760;52.480;13.422;2023-07-16T10:42:15;3.87;;;2.40;;
3491;SDS011;1760;52.480;13.422;2023-07-16T10:44:43;2.40;;;2.17;;
3491;SDS011;1760;52.480;13.422;2023-07-16T10:47:17;2.50;;;2.27;;
3491;SDS011;1760;52.480;13.422;2023-07-16T10:49:46;5.17;;;2.53;;
3491;SDS011;1760;52.480;13.422;2023-07-16T10:52:14;2.77;;;2.53;;
3491;SDS011;1760;52.480;13.422;2023-07-16T10:54:41;2.70;;;2.30;;
3491;SDS011;1760;52.480;13.422;2023-07-16T10:57:08;5.77;;;3.13;;
3491;SDS011;1760;52.480;13.422;2023-07-16T10:59:37;2.57;;;2.37;;
3491;SDS011;1760;52.480;13.422;2023-07-16T11:02:05;2.60;;;2.40;;
3491;SDS011;1760;52.480;13.422;2023-07-16T11:04:36;2.93;;;2.43;;
3491;SDS011;1760;52.480;13.422;2023-07-16T11:07:04;4.80;;;4.03;;
3491;SDS011;1760;52.480;13.422;2023-07-16T11:09:35;3.53;;;3.00;;
3491;SDS011;1760;52.480;13.422;2023-07-16T11:12:08;6.80;;;2.60;;
3491;SDS011;1760;52.480;13.422;2023-07-16T11:14:38;3.60;;;2.30;;
3491;SDS011;1760;52.480;13.422;2023-07-16T11:17:05;6.50;;;2.87;;
3491;SDS011;1760;52.480;13.422;2023-07-16T11:19:34;4.93;;;2.90;;
3491;SDS011;1760;52.480;13.422;2023-07-16T11:22:02;4.60;;;2.73;;
3491;SDS011;1760;52.480;13.422;2023-07-16T11:24:37;3.20;;;2.90;;
3491;SDS011;1760;52.480;13.422;2023-07-16T11:27:17;2.30;;;2.10;;
3491;SDS011;1760;52.480;13.422;2023-07-16T11:29:45;4.03;;;2.57;;
3491;SDS011;1760;52.480;13.422;2023-07-16T11:32:13;4.63;;;3.47;;
3491;SDS011;1760;52.480;13.422;2023-07-16T11:34:51;5.00;;;2.67;;
3491;SDS011;1760;52.480;13.422;2023-07-16T11:37:21;7.63;;;4.80;;
3491;SDS011;1760;52.480;13.422;2023-07-16T11:39:54;11.70;;;8.00;;
3491;SDS011;1760;52.480;13.422;2023-07-16T11:42:27;6.03;;;3.90;;
3491;SDS011;1760;52.480;13.422;2023-07-16T11:44:57;5.27;;;4.57;;
3491;SDS011;1760;52.480;13.422;2023-07-16T11:47:28;6.40;;;2.80;;
3491;SDS011;1760;52.480;13.422;2023-07-16T11:49:55;3.00;;;2.70;;
3491;SDS011;1760;52.480;13.422;2023-07-16T11:52:23;3.70;;;2.63;;
3491;SDS011;1760;52.480;13.422;2023-07-16T11:54:53;3.90;;;2.23;;
3491;SDS011;1760;52.480;13.422;2023-07-16T11:57:24;2.80;;;2.07;;
3491;SDS011;1760;52.480;13.422;2023-07-16T11:59:51;4.57;;;2.40;;
3491;SDS011;1760;52.480;13.422;2023-07-16T12:02:20;3.53;;;1.77;;
3491;SDS011;1760;52.480;13.422;2023-07-16T12:04:47;2.07;;;1.87;;
3491;SDS011;1760;52.480;13.422;2023-07-16T12:07:15;3.27;;;2.20;;
3491;SDS011;1760;52.480;13.422;2023-07-16T12:09:42;4.07;;;3.00;;
3491;SDS011;1760;52.480;13.422;2023-07-16T12:12:10;3.13;;;2.40;;
3491;SDS011;1760;52.480;13.422;2023-07-16T12:14:39;4.50;;;2.57;;
3491;SDS011;1760;52.480;13.422;2023-07-16T12:17:06;2.67;;;2.17;;
3491;SDS011;1760;52.480;13.422;2023-07-16T12:19:33;4.40;;;2.30;;
3491;SDS011;1760;52.480;13.422;2023-07-16T12:22:02;4.20;;;2.60;;
3491;SDS011;1760;52.480;13.422;2023-07-16T12:24:30;4.00;;;2.60;;
3491;SDS011;1760;52.480;13.422;2023-07-16T12:26:57;4.80;;;3.37;;
3491;SDS011;1760;52.480;13.422;2023-07-16T12:29:25;5.10;;;2.70;;
3491;SDS011;1760;52.480;13.422;2023-07-16T12:31:53;4.10;;;3.07;;
3491;SDS011;1760;52.480;13.422;2023-07-16T12:34:19;6.57;;;2.30;;
3491;SDS011;1760;52.480;13.422;2023-07-16T12:36:47;2.50;;;2.30;;
3491;SDS011;1760;52.480;13.422;2023-07-16T12:39:13;3.23;;;2.37;;
3491;SDS011;1760;52.480;13.422;2023-07-16T12:41:41;3.90;;;1.93;;
3491;SDS011;1760;52.480;13.422;2023-07-16T12:44:08;3.97;;;2.20;;
3491;SDS011;1760;52.480;13.422;2023-07-16T12:46:36;3.03;;;2.23;;
3491;SDS011;1760;52.480;13.422;2023-07-16T12:49:03;2.97;;;1.87;;
3491;SDS011;1760;52.480;13.422;2023-07-16T12:51:30;3.23;;;1.80;;
3491;SDS011;1760;52.480;13.422;2023-07-16T12:53:57;4.70;;;2.83;;
3491;SDS011;1760;52.480;13.422;2023-07-16T12:56:25;2.67;;;2.20;;
3491;SDS011;1760;52.480;13.422;2023-07-16T12:58:52;2.83;;;2.43;;
3491;SDS011;1760;52.480;13.422;2023-07-16T13:01:19;4.00;;;2.10;;
3491;SDS011;1760;52.480;13.422;2023-07-16T13:03:47;4.67;;;2.30;;
3491;SDS011;1760;52.480;13.422;2023-07-16T13:06:14;3.17;;;2.30;;
3491;SDS011;1760;52.480;13.422;2023-07-16T13:08:41;2.90;;;1.97;;
3491;SDS011;1760;52.480;13.422;2023-07-16T13:11:08;3.90;;;1.97;;
3491;SDS011;1760;52.480;13.422;2023-07-16T13:13:35;3.00;;;2.30;;
3491;SDS011;1760;52.480;13.422;2023-07-16T13:16:03;2.87;;;1.87;;
3491;SDS011;1760;52.480;13.422;2023-07-16T13:18:30;3.00;;;2.60;;
3491;SDS011;1760;52.480;13.422;2023-07-16T13:20:58;4.40;;;1.93;;
3491;SDS011;1760;52.480;13.422;2023-07-16T13:23:25;2.60;;;2.33;;
3491;SDS011;1760;52.480;13.422;2023-07-16T13:25:52;3.50;;;2.13;;
3491;SDS011;1760;52.480;13.422;2023-07-16T13:28:21;2.03;;;1.87;;
3491;SDS011;1760;52.480;13.422;2023-07-16T13:30:48;4.13;;;2.10;;
3491;SDS011;1760;52.480;13.422;2023-07-16T13:33:15;4.50;;;2.00;;
3491;SDS011;1760;52.480;13.422;2023-07-16T13:35:42;2.53;;;2.00;;
3491;SDS011;1760;52.480;13.422;2023-07-16T13:38:11;6.73;;;2.27;;
3491;SDS011;1760;52.480;13.422;2023-07-16T13:40:37;4.70;;;3.47;;
3491;SDS011;1760;52.480;13.422;2023-07-16T13:43:05;3.87;;;2.70;;
3491;SDS011;1760;52.480;13.422;2023-07-16T13:45:33;3.77;;;2.50;;
3491;SDS011;1760;52.480;13.422;2023-07-16T13:48:00;3.70;;;3.40;;
3491;SDS011;1760;52.480;13.422;2023-07-16T13:50:27;4.30;;;2.50;;
3491;SDS011;1760;52.480;13.422;2023-07-16T13:52:54;4.80;;;1.97;;
3491;SDS011;1760;52.480;13.422;2023-07-16T13:55:22;2.60;;;1.90;;
3491;SDS011;1760;52.480;13.422;2023-07-16T13:57:49;3.53;;;2.27;;
3491;SDS011;1760;52.480;13.422;2023-07-16T14:00:16;2.33;;;2.13;;
3491;SDS011;1760;52.480;13.422;2023-07-16T14:02:44;2.10;;;1.63;;
3491;SDS011;1760;52.480;13.422;2023-07-16T14:05:11;1.80;;;1.63;;
3491;SDS011;1760;52.480;13.422;2023-07-16T14:07:38;4.23;;;2.67;;
3491;SDS011;1760;52.480;13.422;2023-07-16T14:10:05;2.37;;;2.17;;
3491;SDS011;1760;52.480;13.422;2023-07-16T14:12:34;10.50;;;2.80;;
3491;SDS011;1760;52.480;13.422;2023-07-16T14:15:01;3.93;;;2.13;;
3491;SDS011;1760;52.480;13.422;2023-07-16T14:17:28;2.90;;;1.93;;
3491;SDS011;1760;52.480;13.422;2023-07-16T14:19:55;2.13;;;1.93;;
3491;SDS011;1760;52.480;13.422;2023-07-16T14:22:22;2.10;;;1.73;;
3491;SDS011;1760;52.480;13.422;2023-07-16T14:24:52;2.73;;;1.90;;
3491;SDS011;1760;52.480;13.422;2023-07-16T14:27:19;2.83;;;1.70;;
3491;SDS011;1760;52.480;13.422;2023-07-16T14:29:47;4.13;;;2.00;;
3491;SDS011;1760;52.480;13.422;2023-07-16T14:32:14;3.20;;;1.90;;
3491;SDS011;1760;52.480;13.422;2023-07-16T14:34:41;4.07;;;2.47;;
3491;SDS011;1760;52.480;13.422;2023-07-16T14:37:08;4.20;;;2.40;;
3491;SDS011;1760;52.480;13.422;2023-07-16T14:39:35;2.13;;;1.93;;
3491;SDS011;1760;52.480;13.422;2023-07-16T14:42:02;6.97;;;2.70;;
3491;SDS011;1760;52.480;13.422;2023-07-16T14:44:29;3.77;;;2.10;;
3491;SDS011;1760;52.480;13.422;2023-07-16T14:46:57;3.37;;;1.73;;
3491;SDS011;1760;52.480;13.422;2023-07-16T14:49:24;2.33;;;1.87;;
3491;SDS011;1760;52.480;13.422;2023-07-16T14:51:51;3.73;;;2.13;;
3491;SDS011;1760;52.480;13.422;2023-07-16T14:54:18;4.23;;;2.37;;
3491;SDS011;1760;52.480;13.422;2023-07-16T14:56:45;4.70;;;1.70;;
3491;SDS011;1760;52.480;13.422;2023-07-16T14:59:12;2.70;;;1.90;;
3491;SDS011;1760;52.480;13.422;2023-07-16T15:01:39;2.40;;;2.07;;
3491;SDS011;1760;52.480;13.422;2023-07-16T15:04:07;2.63;;;1.83;;
3491;SDS011;1760;52.480;13.422;2023-07-16T15:06:35;4.50;;;2.10;;